OTBH/IUD METAR and TAF weather

Enter ICAO airport designator
Station Type Date Time Source
OTBH METAR 2021/02/27 09:56 UTC NOAA

OTBH 270956Z 33014G19KT 9999 CLR 24/08 A3002 RMK AO2A SLP168 T02390075 $


Station Type Date Time Source
OTBH Decoded METAR 2021/02/27 09:56 UTC NOAA

Station name not available
Feb 27, 2021 - 04:56 AM EST / 2021.02.27 0956 UTC
Wind: from the NNW (330 degrees) at 16 MPH (14 KT) gusting to 22 MPH (19 KT):0
Visibility: greater than 7 mile(s):0
Sky conditions: clear
Temperature: 75.0 F (23.9 C)
Dew Point: 45.5 F (7.5 C)
Relative Humidity: 34%
Pressure (altimeter): 30.02 in. Hg (1016 hPa)
ob: OTBH 270956Z 33014G19KT 9999 CLR 24/08 A3002 RMK AO2A SLP168 T02390075
cycle: 10

Station Type Date Time Source
OTBH TAF 2021/02/27 08:03 UTC NOAA

TAF TAF OTBH 270800Z 2708/2814 34015G20KT 9999 SKC QNH2999INS
BECMG 2716/2717 35012KT 9999 SKC QNH3000INS
BECMG 2723/2724 36009KT 9999 SKC QNH3001INS
BECMG 2803/2804 33012KT 9999 SKC QNH2995INS TX24/2711Z TN12/2801Z

Example: see airport list